Time;durP1;ratioP1;P1;durP2;ratioP2;P2;SDS_P1;SDS_P2;PMS_P1;PMS_P2;Temp;Humidity;BMP_temperature;BMP_pressure;BME280_temperature;BME280_humidity;BME280_pressure;Samples;Min_cycle;Max_cycle;Signal;HPM_P1;HPM_P2
2023/08/28 00:00:44;;;;;;;1.50;1.00;;;14.50;98.20;;;;;;4952657;29;20551;-82
2023/08/28 00:03:11;;;;;;;1.50;1.10;;;14.50;98.20;;;;;;4927446;29;20483;-83
2023/08/28 00:05:38;;;;;;;1.50;1.00;;;14.50;98.20;;;;;;4956064;29;20484;-81
2023/08/28 00:08:05;;;;;;;1.50;1.00;;;14.40;98.20;;;;;;4927869;29;20484;-82
2023/08/28 00:10:32;;;;;;;1.50;1.00;;;14.50;98.20;;;;;;4949848;29;20491;-83
2023/08/28 00:12:59;;;;;;;1.50;1.10;;;14.50;98.20;;;;;;4931133;29;20485;-81
2023/08/28 00:15:27;;;;;;;1.50;1.00;;;14.50;98.20;;;;;;4960174;29;20606;-82
2023/08/28 00:17:54;;;;;;;1.50;1.00;;;14.50;98.20;;;;;;4948450;28;20547;-80
2023/08/28 00:20:21;;;;;;;1.50;1.00;;;14.50;98.20;;;;;;4953868;29;20465;-83
2023/08/28 00:22:48;;;;;;;1.50;1.00;;;14.50;98.20;;;;;;4941997;28;20479;-82
2023/08/28 00:25:15;;;;;;;1.50;1.00;;;14.50;98.20;;;;;;4956736;29;20551;-83
2023/08/28 00:27:41;;;;;;;1.50;1.00;;;14.50;98.20;;;;;;4940983;28;20484;-82
2023/08/28 00:30:09;;;;;;;1.50;1.00;;;14.50;98.20;;;;;;4953541;29;20490;-81
2023/08/28 00:32:38;;;;;;;1.50;1.00;;;14.50;98.20;;;;;;4938129;29;20552;-81
2023/08/28 00:35:06;;;;;;;1.50;1.00;;;14.50;98.20;;;;;;4953055;29;20572;-83
2023/08/28 00:37:33;;;;;;;1.50;1.00;;;14.50;98.20;;;;;;4931354;29;20488;-82
2023/08/28 00:39:59;;;;;;;1.50;1.10;;;14.50;98.20;;;;;;4954234;29;20548;-84
2023/08/28 00:42:26;;;;;;;1.50;1.00;;;14.40;98.20;;;;;;4930085;29;20507;-82
2023/08/28 00:44:53;;;;;;;1.50;1.03;;;14.40;98.20;;;;;;4947513;29;20510;-83
2023/08/28 00:47:20;;;;;;;1.50;1.00;;;14.40;98.20;;;;;;4944788;28;20507;-83
2023/08/28 00:49:49;;;;;;;1.50;1.00;;;14.40;98.20;;;;;;4953140;29;20564;-82
2023/08/28 00:52:16;;;;;;;1.50;1.00;;;14.40;98.20;;;;;;4932581;29;20491;-83
2023/08/28 00:54:43;;;;;;;1.50;1.00;;;14.40;98.20;;;;;;4947795;29;20571;-83
2023/08/28 00:57:12;;;;;;;1.50;1.00;;;14.30;98.20;;;;;;4928625;29;20483;-82
2023/08/28 00:59:39;;;;;;;1.50;1.00;;;14.20;98.20;;;;;;4945662;29;20820;-82
2023/08/28 01:02:06;;;;;;;1.50;1.00;;;14.20;98.20;;;;;;4934195;29;20557;-82
2023/08/28 01:04:33;;;;;;;1.50;1.00;;;14.20;98.20;;;;;;4951243;29;20551;-83
2023/08/28 01:07:10;;;;;;;1.50;1.10;;;14.20;98.20;;;;;;4934519;29;20572;-84
2023/08/28 01:09:46;;;;;;;1.50;1.00;;;14.20;98.20;;;;;;4950394;29;20539;-84
2023/08/28 01:12:21;;;;;;;1.50;1.10;;;14.20;98.20;;;;;;4939427;28;20482;-84
2023/08/28 01:14:57;;;;;;;1.50;1.00;;;14.20;98.20;;;;;;4953240;29;20497;-82
2023/08/28 01:17:24;;;;;;;1.50;1.00;;;14.10;98.20;;;;;;4937784;29;20479;-83
2023/08/28 01:19:52;;;;;;;1.50;1.00;;;14.10;98.20;;;;;;4955170;29;20556;-84
2023/08/28 01:22:23;;;;;;;1.50;1.00;;;14.10;98.20;;;;;;4943864;28;20483;-81
2023/08/28 01:24:52;;;;;;;1.50;1.00;;;14.10;98.20;;;;;;4950832;29;20487;-82
2023/08/28 01:27:22;;;;;;;1.50;1.00;;;14.10;98.20;;;;;;4936400;29;20515;-83
2023/08/28 01:30:08;;;;;;;1.50;1.10;;;14.10;98.20;;;;;;4953577;29;20592;-83
2023/08/28 01:32:35;;;;;;;1.50;1.00;;;14.10;98.20;;;;;;4941828;28;20521;-82
2023/08/28 01:35:04;;;;;;;1.50;1.10;;;14.10;98.20;;;;;;4952951;29;20483;-83
2023/08/28 01:37:50;;;;;;;1.50;1.00;;;14.10;98.20;;;;;;4933694;29;21113;-83
2023/08/28 01:40:18;;;;;;;1.50;1.03;;;14.00;98.20;;;;;;4950853;29;20470;-83
2023/08/28 01:42:47;;;;;;;1.50;1.00;;;14.00;98.20;;;;;;4928583;29;20488;-85
2023/08/28 01:45:16;;;;;;;1.50;1.00;;;14.00;98.20;;;;;;4948616;29;20585;-83
2023/08/28 01:47:43;;;;;;;1.50;1.03;;;14.00;98.20;;;;;;4931680;29;20547;-82
2023/08/28 01:50:10;;;;;;;1.50;1.00;;;14.10;98.20;;;;;;4952119;28;20489;-81
2023/08/28 01:52:37;;;;;;;1.50;1.00;;;14.10;98.20;;;;;;4942152;28;20568;-83
2023/08/28 01:55:05;;;;;;;1.50;1.10;;;14.10;98.20;;;;;;4954633;29;20487;-83
2023/08/28 01:57:32;;;;;;;1.50;1.10;;;14.10;98.20;;;;;;4932000;29;20792;-82
2023/08/28 02:00:00;;;;;;;1.50;1.00;;;14.10;98.20;;;;;;4952942;29;20532;-83
2023/08/28 02:02:27;;;;;;;1.50;1.10;;;14.00;98.20;;;;;;4928379;29;20485;-83
2023/08/28 02:04:53;;;;;;;1.50;1.10;;;14.00;98.20;;;;;;4951983;29;20489;-82
2023/08/28 02:07:20;;;;;;;1.50;1.00;;;14.00;98.20;;;;;;4945313;28;20542;-83
2023/08/28 02:09:47;;;;;;;1.50;1.10;;;14.00;98.20;;;;;;4949148;29;20470;-83
2023/08/28 02:12:14;;;;;;;1.50;1.00;;;14.00;98.20;;;;;;4944182;28;20479;-83
2023/08/28 02:14:41;;;;;;;1.50;1.10;;;14.00;98.20;;;;;;4947704;29;20558;-83
2023/08/28 02:17:10;;;;;;;1.50;1.00;;;14.00;98.20;;;;;;4945766;28;20507;-85
2023/08/28 02:19:37;;;;;;;1.50;1.00;;;13.90;98.20;;;;;;4950865;29;20477;-84
2023/08/28 02:22:04;;;;;;;1.50;1.00;;;13.90;98.20;;;;;;4935569;29;20517;-84
2023/08/28 02:24:31;;;;;;;1.50;1.10;;;13.90;98.20;;;;;;4953477;29;20570;-83
2023/08/28 02:26:58;;;;;;;1.50;1.00;;;13.90;98.20;;;;;;4941758;28;20497;-82
2023/08/28 02:29:25;;;;;;;1.50;1.10;;;13.90;98.20;;;;;;4954747;29;20836;-84
2023/08/28 02:31:51;;;;;;;1.50;1.00;;;13.90;98.20;;;;;;4939578;28;20495;-82
2023/08/28 02:34:19;;;;;;;1.53;1.10;;;13.80;98.20;;;;;;4955433;29;20494;-83
2023/08/28 02:36:46;;;;;;;1.50;1.00;;;13.80;98.20;;;;;;4943934;28;20493;-81
2023/08/28 02:39:13;;;;;;;1.50;1.00;;;13.80;98.20;;;;;;4944770;29;20463;-83
2023/08/28 02:41:40;;;;;;;1.50;1.00;;;13.80;98.20;;;;;;4943576;28;20481;-83
2023/08/28 02:44:07;;;;;;;1.50;1.10;;;13.80;98.20;;;;;;4947180;29;20546;-82
2023/08/28 02:46:34;;;;;;;1.50;1.00;;;13.80;98.20;;;;;;4936382;29;20511;-83
2023/08/28 02:49:00;;;;;;;1.50;1.00;;;13.80;98.20;;;;;;4947315;29;20478;-82
2023/08/28 02:51:28;;;;;;;1.50;1.10;;;13.80;98.20;;;;;;4945642;28;20518;-84
2023/08/28 02:53:55;;;;;;;1.50;1.00;;;13.80;98.20;;;;;;4950361;29;20564;-83
2023/08/28 02:56:25;;;;;;;1.50;1.03;;;13.80;98.20;;;;;;4939618;29;20567;-82
2023/08/28 02:58:52;;;;;;;1.50;1.00;;;13.70;98.20;;;;;;4942337;29;20527;-84
2023/08/28 03:01:19;;;;;;;1.50;1.10;;;13.70;98.20;;;;;;4943248;29;20476;-82
2023/08/28 03:03:46;;;;;;;1.50;1.00;;;13.80;98.20;;;;;;4950216;29;20514;-84
2023/08/28 03:06:13;;;;;;;1.50;1.00;;;13.80;98.20;;;;;;4946103;29;20475;-84
2023/08/28 03:08:41;;;;;;;1.50;1.00;;;13.80;98.20;;;;;;4938543;29;20459;-84
2023/08/28 03:11:08;;;;;;;1.50;1.10;;;13.70;98.20;;;;;;4948378;28;20491;-84
2023/08/28 03:13:35;;;;;;;1.50;1.00;;;13.80;98.20;;;;;;4957040;29;20867;-82
2023/08/28 03:16:02;;;;;;;1.53;1.10;;;13.70;98.20;;;;;;4933217;29;20982;-82
2023/08/28 03:18:29;;;;;;;1.50;1.10;;;13.70;98.20;;;;;;4942073;29;20459;-82
2023/08/28 03:20:56;;;;;;;1.50;1.10;;;13.70;98.20;;;;;;4942419;29;20466;-81
2023/08/28 03:23:23;;;;;;;1.50;1.10;;;13.70;98.20;;;;;;4939737;29;20465;-83
2023/08/28 03:25:51;;;;;;;1.50;1.00;;;13.70;98.20;;;;;;4943726;29;20492;-81
2023/08/28 03:28:18;;;;;;;1.50;1.10;;;13.70;98.20;;;;;;4944094;29;20474;-82
2023/08/28 03:30:45;;;;;;;1.53;1.00;;;13.70;98.20;;;;;;4952725;29;20487;-82
2023/08/28 03:33:12;;;;;;;1.50;1.10;;;13.70;98.20;;;;;;4925344;29;20566;-84
2023/08/28 03:35:39;;;;;;;1.50;1.10;;;13.60;98.20;;;;;;4958246;29;20518;-82
2023/08/28 03:38:06;;;;;;;1.50;1.00;;;13.60;98.20;;;;;;4931549;29;20967;-81
2023/08/28 03:40:34;;;;;;;1.50;1.00;;;13.60;98.20;;;;;;4958860;29;20478;-83
2023/08/28 03:43:03;;;;;;;1.50;1.00;;;13.60;98.20;;;;;;4945660;28;23702;-84
2023/08/28 03:45:29;;;;;;;1.50;1.10;;;13.60;98.20;;;;;;4954241;29;20578;-82
2023/08/28 03:47:56;;;;;;;1.50;1.00;;;13.60;98.20;;;;;;4946747;28;20503;-84
2023/08/28 03:50:24;;;;;;;1.50;1.00;;;13.60;98.20;;;;;;4954230;29;20203;-83
2023/08/28 03:52:51;;;;;;;1.50;1.10;;;13.60;98.20;;;;;;4944113;28;20489;-82
2023/08/28 03:55:17;;;;;;;1.50;1.00;;;13.60;98.20;;;;;;4961792;29;20494;-82
2023/08/28 03:57:44;;;;;;;1.50;1.10;;;13.50;98.20;;;;;;4930884;29;20480;-84
2023/08/28 04:00:14;;;;;;;1.50;1.00;;;13.50;98.20;;;;;;4952913;29;20498;-83
2023/08/28 04:02:42;;;;;;;1.50;1.10;;;13.50;98.20;;;;;;4945622;28;20554;-84
2023/08/28 04:05:09;;;;;;;1.50;1.10;;;13.50;98.20;;;;;;4958814;29;20486;-84
2023/08/28 04:07:36;;;;;;;1.50;1.07;;;13.50;98.20;;;;;;4944802;28;20489;-83
2023/08/28 04:10:03;;;;;;;1.50;1.00;;;13.60;98.20;;;;;;4955991;29;20539;-84
2023/08/28 04:12:30;;;;;;;1.50;1.00;;;13.60;98.20;;;;;;4947558;28;20570;-84
2023/08/28 04:14:57;;;;;;;1.70;1.43;;;13.60;98.20;;;;;;4951676;29;20510;-83
2023/08/28 04:17:26;;;;;;;1.50;1.00;;;13.60;98.20;;;;;;4935859;29;20603;-82
2023/08/28 04:19:53;;;;;;;1.50;1.03;;;13.60;98.20;;;;;;4951521;29;20491;-82
2023/08/28 04:22:20;;;;;;;1.50;1.03;;;13.60;98.20;;;;;;4942069;29;20483;-82
2023/08/28 04:24:47;;;;;;;1.50;1.10;;;13.60;98.20;;;;;;4954608;29;21040;-83
2023/08/28 04:27:14;;;;;;;1.50;1.00;;;13.60;98.20;;;;;;4949256;28;20493;-81
2023/08/28 04:29:41;;;;;;;1.50;1.10;;;13.60;98.20;;;;;;4949109;29;20469;-82
2023/08/28 04:32:08;;;;;;;1.53;1.20;;;13.60;98.20;;;;;;4942291;28;20558;-82
2023/08/28 04:34:37;;;;;;;1.50;1.00;;;13.60;98.20;;;;;;4952158;29;20483;-82
2023/08/28 04:37:04;;;;;;;1.50;1.00;;;13.60;98.20;;;;;;4943519;28;20630;-81
2023/08/28 04:39:31;;;;;;;1.50;1.00;;;13.60;98.20;;;;;;4951919;29;20518;-82
2023/08/28 04:41:58;;;;;;;1.50;1.00;;;13.60;98.20;;;;;;4934934;29;20484;-81
2023/08/28 04:44:24;;;;;;;1.50;1.10;;;13.60;98.20;;;;;;4944190;29;20499;-81
2023/08/28 04:46:51;;;;;;;1.50;1.00;;;13.50;98.20;;;;;;4931557;29;20484;-82
2023/08/28 04:49:18;;;;;;;1.53;1.10;;;13.50;98.20;;;;;;4944235;29;20468;-82
2023/08/28 04:51:46;;;;;;;1.50;1.00;;;13.50;98.20;;;;;;4937476;28;20491;-83
2023/08/28 04:54:13;;;;;;;1.50;1.10;;;13.50;98.20;;;;;;4938336;29;20501;-81
2023/08/28 04:56:40;;;;;;;1.50;1.00;;;13.50;98.20;;;;;;4939196;28;20597;-83
2023/08/28 04:59:07;;;;;;;1.50;1.10;;;13.50;98.20;;;;;;4955159;29;20471;-82
2023/08/28 05:01:33;;;;;;;1.50;1.00;;;13.50;98.20;;;;;;4940933;28;20557;-82
2023/08/28 05:04:00;;;;;;;1.50;1.10;;;13.50;98.20;;;;;;4954886;29;20490;-81
2023/08/28 05:06:27;;;;;;;1.53;1.00;;;13.50;98.20;;;;;;4934532;29;20554;-80
2023/08/28 05:08:55;;;;;;;1.50;1.03;;;13.50;98.20;;;;;;4930505;29;20471;-81
2023/08/28 05:11:22;;;;;;;1.50;1.10;;;13.50;98.20;;;;;;4913541;29;20471;-81
2023/08/28 05:13:49;;;;;;;1.50;1.10;;;13.50;98.20;;;;;;4916725;29;20496;-80
2023/08/28 05:16:15;;;;;;;1.50;1.00;;;13.50;98.20;;;;;;4919615;29;20475;-79
2023/08/28 05:18:42;;;;;;;1.50;1.10;;;13.50;98.20;;;;;;4924762;29;20467;-79
2023/08/28 05:21:09;;;;;;;1.50;1.00;;;13.50;98.20;;;;;;4912378;29;20491;-77
2023/08/28 05:23:36;;;;;;;1.50;1.00;;;13.50;98.20;;;;;;4925095;29;20896;-80
2023/08/28 05:26:04;;;;;;;1.50;1.00;;;13.50;98.20;;;;;;4914741;29;20540;-79
2023/08/28 05:28:34;;;;;;;1.50;1.00;;;13.50;98.20;;;;;;4925797;29;20566;-80
2023/08/28 05:31:01;;;;;;;1.50;1.10;;;13.50;98.20;;;;;;4932029;29;20495;-81
2023/08/28 05:33:28;;;;;;;1.50;1.10;;;13.60;98.20;;;;;;4935872;29;20550;-82
2023/08/28 05:35:55;;;;;;;1.50;1.00;;;13.60;98.20;;;;;;4926020;28;20489;-80
2023/08/28 05:38:22;;;;;;;1.50;1.10;;;13.60;98.20;;;;;;4932685;29;20499;-81
2023/08/28 05:40:48;;;;;;;1.50;1.10;;;13.70;98.20;;;;;;4933785;28;20464;-80
2023/08/28 05:43:17;;;;;;;1.50;1.00;;;13.70;98.20;;;;;;4944502;29;20473;-81
2023/08/28 05:45:43;;;;;;;1.50;1.00;;;13.80;98.20;;;;;;4953166;29;20493;-81
2023/08/28 05:48:10;;;;;;;1.50;1.00;;;13.90;98.20;;;;;;4918169;29;20550;-81
2023/08/28 05:50:39;;;;;;;1.50;1.00;;;14.00;98.20;;;;;;4945437;29;20465;-81
2023/08/28 05:53:06;;;;;;;1.53;1.10;;;14.10;98.20;;;;;;4920928;29;20491;-80
2023/08/28 05:55:33;;;;;;;1.50;1.00;;;14.20;98.20;;;;;;4951036;29;20524;-81
2023/08/28 05:58:00;;;;;;;1.50;1.00;;;14.30;98.20;;;;;;4933832;28;20487;-82
2023/08/28 06:00:29;;;;;;;1.50;1.10;;;14.40;98.20;;;;;;4936165;29;20578;-81
2023/08/28 06:02:56;;;;;;;1.50;1.10;;;14.50;98.20;;;;;;4921879;29;20476;-81
2023/08/28 06:05:23;;;;;;;1.50;1.00;;;14.60;98.20;;;;;;4949669;29;20780;-81
2023/08/28 06:07:50;;;;;;;1.50;1.00;;;14.70;98.20;;;;;;4926409;28;20507;-81
2023/08/28 06:10:19;;;;;;;1.50;1.00;;;14.80;98.20;;;;;;4943327;29;20471;-80
2023/08/28 06:12:46;;;;;;;1.50;1.00;;;14.80;98.20;;;;;;4914228;29;21074;-81
2023/08/28 06:15:14;;;;;;;1.50;1.10;;;15.00;98.20;;;;;;4929903;29;21067;-81
2023/08/28 06:17:42;;;;;;;1.50;1.00;;;15.10;98.20;;;;;;4936786;29;20486;-79
2023/08/28 06:20:10;;;;;;;1.50;1.00;;;15.20;98.20;;;;;;4935874;29;20534;-78
2023/08/28 06:22:37;;;;;;;1.50;0.97;;;15.40;98.20;;;;;;4912007;29;20967;-79
2023/08/28 06:25:05;;;;;;;1.50;1.00;;;15.50;98.20;;;;;;4939761;29;20845;-82
2023/08/28 06:27:32;;;;;;;1.50;1.00;;;15.60;98.20;;;;;;4941706;28;20484;-80
2023/08/28 06:29:59;;;;;;;1.50;1.00;;;15.80;98.20;;;;;;4940906;29;20468;-81
2023/08/28 06:32:25;;;;;;;1.50;1.00;;;15.90;98.20;;;;;;4920639;29;20480;-78
2023/08/28 06:34:54;;;;;;;1.50;1.00;;;16.10;98.20;;;;;;4939664;29;20501;-78
2023/08/28 06:37:20;;;;;;;1.50;1.00;;;16.10;98.20;;;;;;4933097;28;20474;-78
2023/08/28 06:39:48;;;;;;;1.53;1.10;;;16.20;98.20;;;;;;4942936;29;20500;-78
2023/08/28 06:42:14;;;;;;;1.50;1.00;;;16.30;98.20;;;;;;4934560;29;20478;-77
2023/08/28 06:44:41;;;;;;;1.57;1.00;;;16.50;98.20;;;;;;4952295;29;20529;-78
2023/08/28 06:47:08;;;;;;;1.50;1.00;;;16.60;98.20;;;;;;4944948;28;20490;-78
2023/08/28 06:49:35;;;;;;;1.50;1.00;;;16.70;98.20;;;;;;4938237;29;21000;-78
2023/08/28 06:52:04;;;;;;;1.50;0.90;;;16.80;98.20;;;;;;4937226;29;20970;-78
2023/08/28 06:54:32;;;;;;;1.50;0.90;;;16.90;98.20;;;;;;4932544;29;20494;-79
2023/08/28 06:56:59;;;;;;;1.53;1.00;;;16.90;98.20;;;;;;4904341;29;20496;-77
2023/08/28 06:59:26;;;;;;;1.50;1.00;;;17.00;98.20;;;;;;4920810;29;20669;-77
2023/08/28 07:01:53;;;;;;;1.50;0.90;;;17.10;98.20;;;;;;4912097;29;20488;-77
2023/08/28 07:04:20;;;;;;;1.50;0.90;;;17.20;98.20;;;;;;4919914;29;20844;-77
2023/08/28 07:06:47;;;;;;;1.50;0.97;;;17.30;98.20;;;;;;4908262;29;20721;-77
2023/08/28 07:09:15;;;;;;;1.50;0.90;;;17.30;98.20;;;;;;4921718;29;20543;-77
2023/08/28 07:11:43;;;;;;;1.50;0.90;;;17.30;98.20;;;;;;4912284;29;20539;-78
2023/08/28 07:14:10;;;;;;;1.50;0.97;;;17.40;98.20;;;;;;4923732;29;20492;-78
2023/08/28 07:16:37;;;;;;;1.50;0.90;;;17.60;98.20;;;;;;4912443;29;20826;-77
2023/08/28 07:19:03;;;;;;;1.50;1.00;;;17.70;98.20;;;;;;4926086;29;20914;-79
2023/08/28 07:21:30;;;;;;;1.50;0.90;;;17.80;98.20;;;;;;4911819;29;20476;-77
2023/08/28 07:23:58;;;;;;;1.50;0.90;;;18.00;98.20;;;;;;4911922;29;20484;-78
2023/08/28 07:26:26;;;;;;;1.50;1.00;;;18.00;98.20;;;;;;4912299;29;20873;-78
2023/08/28 07:28:53;;;;;;;1.50;0.90;;;18.10;98.20;;;;;;4921112;29;20975;-78
2023/08/28 07:31:19;;;;;;;1.50;0.90;;;18.20;98.20;;;;;;4912101;29;20496;-75
2023/08/28 07:33:46;;;;;;;1.50;0.90;;;18.30;98.20;;;;;;4914756;29;20479;-78
2023/08/28 07:36:13;;;;;;;1.53;0.90;;;18.50;98.20;;;;;;4918256;29;20483;-77
2023/08/28 07:38:43;;;;;;;1.50;0.90;;;18.70;98.20;;;;;;4922486;29;20472;-77
2023/08/28 07:41:10;;;;;;;1.50;0.90;;;18.80;98.20;;;;;;4919213;28;20563;-78
2023/08/28 07:43:38;;;;;;;1.57;0.90;;;19.00;98.20;;;;;;4929717;29;20543;-77
2023/08/28 07:46:05;;;;;;;1.50;0.90;;;19.10;98.20;;;;;;4922119;29;21027;-78
2023/08/28 07:48:32;;;;;;;1.50;0.90;;;19.30;98.20;;;;;;4933769;28;20504;-77
2023/08/28 07:50:58;;;;;;;1.50;0.90;;;19.50;98.20;;;;;;4919664;29;20474;-79
2023/08/28 07:53:25;;;;;;;1.50;0.90;;;19.60;98.20;;;;;;4931737;29;20499;-79
2023/08/28 07:55:52;;;;;;;1.50;0.90;;;19.70;98.20;;;;;;4921697;28;20492;-79
2023/08/28 07:58:19;;;;;;;1.50;0.90;;;19.70;98.20;;;;;;4925185;29;20473;-79
2023/08/28 08:00:47;;;;;;;1.50;0.93;;;19.80;98.20;;;;;;4929610;29;21282;-79
2023/08/28 08:03:14;;;;;;;1.50;0.90;;;20.00;98.20;;;;;;4900206;29;20569;-79
2023/08/28 08:05:41;;;;;;;1.50;0.90;;;20.10;98.20;;;;;;4920322;29;20595;-79
2023/08/28 08:08:08;;;;;;;1.50;0.90;;;20.30;98.20;;;;;;4913702;28;20490;-79
2023/08/28 08:10:36;;;;;;;1.50;0.90;;;20.40;98.20;;;;;;4922287;29;20479;-79
2023/08/28 08:13:04;;;;;;;1.50;0.90;;;20.50;98.20;;;;;;4910613;29;20493;-77
2023/08/28 08:15:31;;;;;;;1.50;0.90;;;20.60;98.20;;;;;;4919806;29;20886;-78
2023/08/28 08:17:59;;;;;;;1.50;0.90;;;20.70;98.20;;;;;;4911034;28;20487;-78
2023/08/28 08:20:26;;;;;;;1.50;0.90;;;20.70;98.20;;;;;;4921848;29;20783;-79
2023/08/28 08:22:53;;;;;;;1.50;0.90;;;20.80;98.20;;;;;;4913141;29;20515;-81
2023/08/28 08:25:22;;;;;;;1.50;0.90;;;20.80;98.20;;;;;;4917803;29;20583;-79
2023/08/28 08:27:49;;;;;;;1.50;0.80;;;20.90;98.20;;;;;;4896141;29;20497;-81
2023/08/28 08:30:16;;;;;;;1.50;0.90;;;21.00;98.20;;;;;;4923749;29;20474;-78
2023/08/28 08:32:44;;;;;;;1.50;0.90;;;21.20;98.20;;;;;;4906032;29;20484;-78
2023/08/28 08:35:12;;;;;;;1.50;0.90;;;21.30;98.20;;;;;;4925465;29;20710;-82
2023/08/28 08:37:47;;;;;;;1.50;0.90;;;21.40;98.20;;;;;;4928087;29;20511;-80
2023/08/28 08:40:15;;;;;;;2.73;1.73;;;21.50;98.20;;;;;;4936711;29;21348;-81
2023/08/28 08:42:42;;;;;;;1.50;0.90;;;21.60;98.20;;;;;;4923882;28;20499;-80
2023/08/28 08:45:17;;;;;;;1.50;0.90;;;21.70;98.20;;;;;;4932780;29;20545;-79
2023/08/28 08:47:48;;;;;;;1.50;0.90;;;21.80;98.20;;;;;;4912338;29;20598;-79
2023/08/28 08:50:20;;;;;;;1.50;0.90;;;22.00;98.20;;;;;;4935145;29;21050;-80
2023/08/28 08:52:49;;;;;;;1.50;0.90;;;22.10;98.20;;;;;;4909456;29;20489;-82
2023/08/28 08:55:28;;;;;;;1.50;0.90;;;22.20;98.20;;;;;;4926868;29;20486;-83
2023/08/28 08:57:58;;;;;;;1.50;0.90;;;22.30;98.20;;;;;;4920452;29;20487;-82
2023/08/28 09:00:31;;;;;;;1.50;0.87;;;22.40;98.20;;;;;;4930773;29;20480;-80
2023/08/28 09:02:59;;;;;;;1.50;0.90;;;22.50;98.20;;;;;;4906711;28;20488;-81
2023/08/28 09:05:31;;;;;;;1.50;0.90;;;22.60;98.20;;;;;;4936838;29;20864;-81
2023/08/28 09:08:03;;;;;;;1.47;0.90;;;22.60;98.20;;;;;;4922025;29;20496;-80
2023/08/28 09:10:31;;;;;;;1.50;0.80;;;22.60;98.20;;;;;;4935999;29;20503;-81
2023/08/28 09:12:58;;;;;;;1.50;0.90;;;22.50;98.20;;;;;;4909200;29;20989;-80
2023/08/28 09:15:25;;;;;;;1.50;0.90;;;22.50;98.20;;;;;;4940186;29;20496;-80
2023/08/28 09:17:53;;;;;;;1.50;0.80;;;22.40;98.20;;;;;;4916363;29;20488;-83
2023/08/28 09:20:22;;;;;;;1.47;0.90;;;22.30;98.20;;;;;;4939419;29;20792;-83
2023/08/28 09:22:52;;;;;;;1.50;0.90;;;22.20;98.20;;;;;;4917002;28;20480;-80
2023/08/28 09:25:21;;;;;;;1.50;0.90;;;22.20;98.20;;;;;;4943901;29;20889;-80
2023/08/28 09:27:50;;;;;;;1.50;0.87;;;22.20;98.20;;;;;;4911223;29;20566;-80
2023/08/28 09:30:29;;;;;;;1.50;0.90;;;22.10;98.20;;;;;;4931689;29;21222;-80
2023/08/28 09:32:58;;;;;;;1.43;0.90;;;22.10;98.20;;;;;;4907818;29;20487;-80
2023/08/28 09:35:29;;;;;;;1.50;0.90;;;22.00;98.20;;;;;;4937926;29;20495;-80
2023/08/28 09:37:59;;;;;;;1.50;0.90;;;21.90;98.20;;;;;;4917517;29;20862;-80
2023/08/28 09:40:30;;;;;;;1.47;0.90;;;21.90;98.20;;;;;;4932484;29;21026;-80
2023/08/28 09:42:58;;;;;;;1.47;0.90;;;21.90;98.20;;;;;;4912251;29;20487;-80
2023/08/28 09:45:31;;;;;;;1.50;0.90;;;21.90;98.20;;;;;;4934917;29;20522;-81
2023/08/28 09:47:59;;;;;;;1.50;0.90;;;22.00;98.20;;;;;;4912430;29;21026;-80
2023/08/28 09:50:29;;;;;;;1.50;0.90;;;22.10;98.20;;;;;;4938301;29;20476;-82
2023/08/28 09:53:07;;;;;;;1.50;0.90;;;22.10;97.70;;;;;;4912161;29;20484;-80
2023/08/28 09:55:37;;;;;;;1.50;0.90;;;22.10;98.20;;;;;;4947413;29;20571;-81
2023/08/28 09:58:09;;;;;;;1.50;0.80;;;22.10;98.20;;;;;;4925606;28;21127;-83
2023/08/28 10:00:37;;;;;;;1.50;0.87;;;22.10;98.20;;;;;;4928795;29;20471;-82
2023/08/28 10:03:06;;;;;;;1.47;0.90;;;22.10;98.20;;;;;;4910164;29;20495;-82
2023/08/28 10:05:36;;;;;;;1.50;0.90;;;22.10;98.20;;;;;;4940383;29;20494;-81
2023/08/28 10:08:07;;;;;;;1.47;0.90;;;22.20;98.20;;;;;;4928397;28;20545;-81
2023/08/28 10:10:34;;;;;;;1.50;0.80;;;22.10;98.20;;;;;;4939312;29;20921;-82
2023/08/28 10:13:05;;;;;;;1.43;0.80;;;22.00;97.90;;;;;;4913715;28;20516;-81
2023/08/28 10:15:34;;;;;;;1.50;0.90;;;22.10;98.20;;;;;;4942321;29;20527;-80
2023/08/28 10:18:09;;;;;;;1.50;0.80;;;22.00;97.40;;;;;;4931574;28;21047;-80
2023/08/28 10:20:52;;;;;;;1.43;0.90;;;22.00;97.40;;;;;;4933943;29;20503;-81
2023/08/28 10:23:22;;;;;;;1.47;0.87;;;22.10;98.00;;;;;;4914093;29;20989;-81
2023/08/28 10:25:54;;;;;;;1.40;0.80;;;22.20;97.80;;;;;;4925720;28;20582;-81
2023/08/28 10:28:22;;;;;;;1.50;0.80;;;22.20;97.80;;;;;;4933616;29;20506;-81
2023/08/28 10:30:51;;;;;;;1.47;0.80;;;22.30;98.20;;;;;;4920301;29;20503;-81
2023/08/28 10:33:20;;;;;;;1.43;0.90;;;22.40;98.20;;;;;;4922949;29;20931;-82
2023/08/28 10:35:51;;;;;;;1.50;0.80;;;22.40;97.90;;;;;;4932485;28;20928;-82
2023/08/28 10:38:21;;;;;;;1.50;0.90;;;22.50;95.70;;;;;;4931875;29;20555;-81
2023/08/28 10:40:50;;;;;;;1.47;0.90;;;22.40;96.10;;;;;;4919538;28;20832;-81
2023/08/28 10:43:19;;;;;;;1.47;0.90;;;22.50;96.90;;;;;;4921283;29;20947;-81
2023/08/28 10:45:49;;;;;;;1.50;0.90;;;22.60;97.40;;;;;;4938529;28;20497;-81
2023/08/28 10:48:17;;;;;;;1.43;0.80;;;22.80;97.10;;;;;;4931402;29;20992;-81
2023/08/28 10:50:45;;;;;;;1.50;0.87;;;22.90;95.40;;;;;;4933696;29;21008;-81
2023/08/28 10:53:15;;;;;;;1.47;0.83;;;23.00;96.00;;;;;;4912058;29;20497;-80
2023/08/28 10:55:55;;;;;;;1.50;0.90;;;23.20;96.00;;;;;;4937775;29;20852;-80
2023/08/28 10:58:22;;;;;;;1.43;0.87;;;23.40;94.70;;;;;;4911218;29;20520;-81
2023/08/28 11:00:50;;;;;;;1.47;0.90;;;23.60;95.00;;;;;;4931648;29;20499;-81
2023/08/28 11:03:18;;;;;;;1.43;0.83;;;23.70;93.70;;;;;;4925263;29;20497;-82
2023/08/28 11:05:45;;;;;;;1.47;0.90;;;23.80;93.80;;;;;;4935778;29;20487;-81
2023/08/28 11:08:15;;;;;;;1.50;0.90;;;24.00;93.30;;;;;;4908999;29;20518;-81
2023/08/28 11:10:45;;;;;;;1.50;0.90;;;24.20;92.00;;;;;;4933976;29;21050;-81
2023/08/28 11:13:21;;;;;;;1.50;0.80;;;24.50;92.30;;;;;;4915562;29;20494;-82
2023/08/28 11:15:49;;;;;;;1.50;0.83;;;24.80;92.40;;;;;;4916290;29;20492;-79
2023/08/28 11:18:39;;;;;;;1.50;0.90;;;25.00;89.30;;;;;;4923891;29;20518;-81
2023/08/28 11:21:08;;;;;;;1.50;0.80;;;25.20;88.00;;;;;;4922574;29;20492;-82
2023/08/28 11:23:37;;;;;;;1.40;0.80;;;25.30;87.80;;;;;;4931126;29;21113;-80
2023/08/28 11:26:08;;;;;;;1.50;0.90;;;25.30;88.70;;;;;;4928991;28;20505;-81
2023/08/28 11:28:45;;;;;;;1.50;0.90;;;25.30;89.30;;;;;;4933973;29;20509;-81
2023/08/28 11:31:14;;;;;;;1.50;0.90;;;25.10;88.00;;;;;;4924411;28;20555;-82
2023/08/28 11:33:44;;;;;;;1.50;0.80;;;24.90;87.50;;;;;;4915830;28;20555;-81
2023/08/28 11:36:14;;;;;;;1.47;0.80;;;24.80;88.20;;;;;;4917963;29;20483;-81
2023/08/28 11:38:42;;;;;;;1.47;0.80;;;24.60;89.70;;;;;;4921614;29;20476;-79
2023/08/28 11:41:11;;;;;;;1.47;0.83;;;24.60;90.60;;;;;;4921622;29;20495;-79
2023/08/28 11:43:40;;;;;;;1.50;0.90;;;24.50;90.50;;;;;;4914413;29;20499;-79
2023/08/28 11:46:08;;;;;;;1.50;0.80;;;24.40;90.30;;;;;;4918990;28;20837;-81
2023/08/28 11:48:36;;;;;;;1.47;0.80;;;24.30;89.30;;;;;;4918931;29;20986;-79
2023/08/28 11:51:05;;;;;;;1.50;0.90;;;24.20;89.60;;;;;;4920862;29;20905;-80
2023/08/28 11:53:34;;;;;;;1.40;0.80;;;24.20;88.50;;;;;;4929196;29;20491;-79
2023/08/28 11:56:03;;;;;;;1.47;0.80;;;24.20;90.70;;;;;;4925660;28;20545;-81
2023/08/28 11:58:31;;;;;;;1.50;0.80;;;24.30;92.50;;;;;;4936095;29;20557;-79
2023/08/28 12:01:01;;;;;;;1.50;0.87;;;24.40;92.00;;;;;;4925019;28;20533;-79
2023/08/28 12:03:32;;;;;;;1.50;0.90;;;24.50;91.70;;;;;;4925036;29;20991;-79
2023/08/28 12:06:06;;;;;;;1.47;0.80;;;24.60;90.00;;;;;;4934552;28;20501;-79
2023/08/28 12:08:35;;;;;;;1.47;0.90;;;24.80;91.10;;;;;;4938016;29;20530;-80
2023/08/28 12:11:03;;;;;;;1.50;0.90;;;25.00;90.30;;;;;;4923397;28;20478;-80
2023/08/28 12:13:32;;;;;;;1.47;0.80;;;25.10;86.40;;;;;;4936822;29;20494;-79
2023/08/28 12:16:11;;;;;;;1.50;0.90;;;25.00;87.30;;;;;;4927283;28;20488;-79
2023/08/28 12:18:47;;;;;;;1.43;0.90;;;25.00;88.70;;;;;;4923225;29;20586;-79
2023/08/28 12:21:16;;;;;;;1.50;0.80;;;24.90;87.50;;;;;;4918235;28;20486;-81
2023/08/28 12:23:51;;;;;;;1.43;0.80;;;24.80;85.90;;;;;;4940394;29;20506;-80
2023/08/28 12:26:20;;;;;;;1.47;0.90;;;24.40;87.80;;;;;;4930981;29;20462;-81
2023/08/28 12:28:47;;;;;;;1.50;0.90;;;24.30;90.10;;;;;;4937183;29;20475;-81
2023/08/28 12:31:15;;;;;;;1.40;0.80;;;24.30;89.00;;;;;;4919429;29;20477;-79
2023/08/28 12:33:44;;;;;;;1.47;0.90;;;24.40;89.40;;;;;;4929150;28;20508;-79
2023/08/28 12:36:13;;;;;;;1.47;0.80;;;24.50;89.50;;;;;;4924970;29;20491;-79
2023/08/28 12:38:51;;;;;;;1.50;0.80;;;24.60;88.70;;;;;;4930595;29;20487;-78
2023/08/28 12:41:18;;;;;;;1.43;0.80;;;24.60;89.30;;;;;;4935323;29;20599;-79
2023/08/28 12:43:46;;;;;;;1.47;0.80;;;24.70;89.40;;;;;;4936548;29;21018;-79
2023/08/28 12:46:15;;;;;;;1.47;0.80;;;24.80;89.60;;;;;;4934016;28;20490;-79
2023/08/28 12:48:43;;;;;;;1.47;0.80;;;24.90;87.90;;;;;;4945686;29;20507;-79
2023/08/28 12:51:10;;;;;;;1.47;0.80;;;25.00;88.10;;;;;;4930817;28;21149;-79
2023/08/28 12:53:39;;;;;;;1.50;0.80;;;25.20;88.60;;;;;;4935744;29;20491;-79